Time;durP1;ratioP1;P1;durP2;ratioP2;P2;SDS_P1;SDS_P2;PMS_P1;PMS_P2;Temp;Humidity;BMP_temperature;BMP_pressure;BME280_temperature;BME280_humidity;BME280_pressure;Samples;Min_cycle;Max_cycle;Signal;HPM_P1;HPM_P2
2023/06/14 00:01:45;;;;;;;2.70;2.50;;;25.80;47.90;;;;;;5053476;28;20638;-59
2023/06/14 00:04:12;;;;;;;2.90;2.40;;;25.80;47.90;;;;;;5052612;28;20638;-59
2023/06/14 00:06:38;;;;;;;2.90;2.70;;;25.80;47.80;;;;;;5053497;28;20209;-59
2023/06/14 00:09:04;;;;;;;2.67;2.47;;;25.90;48.00;;;;;;5053693;28;20207;-58
2023/06/14 00:11:30;;;;;;;3.08;2.83;;;25.80;48.00;;;;;;5052581;28;20254;-58
2023/06/14 00:13:56;;;;;;;4.28;3.15;;;25.80;47.90;;;;;;5052783;28;20263;-59
2023/06/14 00:16:22;;;;;;;3.33;3.10;;;25.80;47.80;;;;;;5051313;28;20263;-58
2023/06/14 00:18:48;;;;;;;3.20;2.47;;;25.90;48.00;;;;;;5053334;28;20234;-59
2023/06/14 00:21:14;;;;;;;3.03;2.72;;;25.80;47.80;;;;;;5053182;28;20171;-59
2023/06/14 00:23:39;;;;;;;2.95;2.75;;;25.80;47.90;;;;;;5052692;28;20179;-58
2023/06/14 00:26:05;;;;;;;3.38;2.85;;;25.80;47.90;;;;;;5053349;28;20618;-58
2023/06/14 00:28:30;;;;;;;3.05;2.75;;;25.80;47.90;;;;;;5053016;28;20232;-58
2023/06/14 00:30:56;;;;;;;2.83;2.63;;;25.80;47.90;;;;;;5052265;28;20312;-59
2023/06/14 00:33:21;;;;;;;3.45;2.70;;;25.80;48.60;;;;;;5052903;28;20631;-59
2023/06/14 00:35:47;;;;;;;3.47;3.00;;;25.80;47.90;;;;;;5053217;28;20683;-59
2023/06/14 00:38:13;;;;;;;2.88;2.33;;;25.80;48.00;;;;;;5052084;28;20211;-59
2023/06/14 00:40:38;;;;;;;2.83;2.45;;;25.70;47.90;;;;;;5053075;28;20174;-58
2023/06/14 00:43:04;;;;;;;3.13;2.83;;;25.70;47.90;;;;;;5053031;28;20171;-59
2023/06/14 00:45:31;;;;;;;3.15;2.85;;;25.80;47.90;;;;;;5051909;28;20662;-59
2023/06/14 00:47:56;;;;;;;2.50;2.30;;;25.70;47.90;;;;;;5053076;28;20182;-58
2023/06/14 00:50:23;;;;;;;3.20;2.90;;;25.70;47.80;;;;;;5035016;28;20167;-59
2023/06/14 00:52:49;;;;;;;3.05;2.63;;;25.70;47.80;;;;;;5052087;28;20206;-58
2023/06/14 00:55:15;;;;;;;4.82;2.72;;;25.70;47.90;;;;;;5052505;28;20206;-58
2023/06/14 00:57:41;;;;;;;3.13;2.83;;;25.70;47.90;;;;;;5052667;28;20175;-58
2023/06/14 01:00:08;;;;;;;2.42;2.22;;;25.70;47.90;;;;;;5050694;28;20225;-59
2023/06/14 01:02:36;;;;;;;2.83;2.63;;;25.70;47.90;;;;;;5052767;28;20186;-59
2023/06/14 01:05:02;;;;;;;2.55;2.35;;;25.70;47.80;;;;;;5052934;28;20178;-59
2023/06/14 01:07:40;;;;;;;2.85;2.60;;;25.70;47.80;;;;;;5051676;28;20175;-58
2023/06/14 01:10:06;;;;;;;2.75;2.38;;;25.70;47.80;;;;;;5051558;28;20186;-58
2023/06/14 01:12:40;;;;;;;2.60;2.40;;;25.70;47.90;;;;;;5051619;28;20263;-58
2023/06/14 01:15:06;;;;;;;2.75;2.55;;;25.70;47.80;;;;;;5035701;28;20182;-59
2023/06/14 01:17:31;;;;;;;2.58;2.38;;;25.70;47.80;;;;;;5051392;28;20572;-59
2023/06/14 01:19:59;;;;;;;2.63;2.42;;;25.70;47.70;;;;;;5050670;28;20697;-59
2023/06/14 01:22:28;;;;;;;2.53;2.33;;;25.70;47.80;;;;;;5050970;28;20175;-59
2023/06/14 01:24:55;;;;;;;2.60;2.40;;;25.60;47.70;;;;;;5051232;28;20210;-58
2023/06/14 01:27:23;;;;;;;3.05;2.75;;;25.60;47.70;;;;;;5053562;28;20171;-59
2023/06/14 01:29:50;;;;;;;2.80;2.60;;;25.60;47.80;;;;;;5038978;28;20180;-58
2023/06/14 01:32:17;;;;;;;2.70;2.50;;;25.60;47.70;;;;;;5038670;28;20261;-59
2023/06/14 01:34:43;;;;;;;2.72;2.47;;;25.60;47.70;;;;;;5038080;28;20254;-58
2023/06/14 01:37:08;;;;;;;2.53;2.33;;;25.60;47.70;;;;;;5055958;28;20302;-59
2023/06/14 01:39:34;;;;;;;3.03;2.67;;;25.60;47.80;;;;;;5055985;28;20572;-59
2023/06/14 01:41:59;;;;;;;3.38;2.45;;;25.60;47.70;;;;;;5054157;28;20663;-59
2023/06/14 01:44:25;;;;;;;3.17;2.58;;;25.60;47.60;;;;;;5054691;28;20262;-59
2023/06/14 01:46:50;;;;;;;3.30;2.60;;;25.60;47.70;;;;;;5038391;28;20203;-58
2023/06/14 01:49:16;;;;;;;3.08;2.63;;;25.60;47.70;;;;;;5054994;28;20262;-58
2023/06/14 01:51:41;;;;;;;3.35;2.58;;;25.60;47.80;;;;;;5056025;28;20167;-58
2023/06/14 01:54:07;;;;;;;2.47;2.28;;;25.60;47.70;;;;;;5055552;28;20171;-58
2023/06/14 01:56:32;;;;;;;2.88;2.65;;;25.60;47.80;;;;;;5055276;28;21218;-58
2023/06/14 01:58:58;;;;;;;2.33;2.05;;;25.60;47.70;;;;;;5055815;28;20269;-58
2023/06/14 02:01:24;;;;;;;2.40;2.20;;;25.60;48.40;;;;;;5055718;28;20167;-59
2023/06/14 02:03:51;;;;;;;2.38;2.08;;;25.60;47.70;;;;;;5054946;28;20183;-58
2023/06/14 02:06:16;;;;;;;2.50;2.30;;;25.60;47.70;;;;;;5055374;28;20564;-58
2023/06/14 02:08:42;;;;;;;2.20;2.00;;;25.60;47.80;;;;;;5055234;28;20178;-58
2023/06/14 02:11:08;;;;;;;2.67;2.47;;;25.60;47.70;;;;;;5055607;28;20677;-58
2023/06/14 02:13:34;;;;;;;2.13;2.03;;;25.50;47.70;;;;;;5055767;28;20183;-59
2023/06/14 02:16:00;;;;;;;2.80;2.50;;;25.50;47.70;;;;;;5055122;28;20258;-59
2023/06/14 02:18:26;;;;;;;2.40;2.20;;;25.50;47.70;;;;;;5055111;28;20321;-59
2023/06/14 02:20:51;;;;;;;2.97;2.78;;;25.50;47.80;;;;;;5055511;28;20171;-59
2023/06/14 02:23:17;;;;;;;3.03;2.78;;;25.60;47.80;;;;;;5054366;28;20536;-59
2023/06/14 02:25:44;;;;;;;2.88;1.95;;;25.50;47.70;;;;;;5055644;28;20626;-58
2023/06/14 02:28:10;;;;;;;3.00;2.70;;;25.50;47.80;;;;;;5055387;28;20203;-58
2023/06/14 02:30:35;;;;;;;2.90;2.60;;;25.50;47.80;;;;;;5054668;28;20213;-58
2023/06/14 02:33:01;;;;;;;2.75;2.30;;;25.50;47.80;;;;;;5055315;28;20520;-58
2023/06/14 02:35:27;;;;;;;2.45;2.25;;;25.50;47.80;;;;;;5054898;28;20658;-59
2023/06/14 02:37:53;;;;;;;3.30;2.22;;;25.50;47.70;;;;;;5053668;28;20698;-58
2023/06/14 02:40:19;;;;;;;2.50;2.30;;;25.50;47.80;;;;;;5054579;28;20226;-59
2023/06/14 02:42:45;;;;;;;2.35;2.15;;;25.50;47.70;;;;;;5055257;28;20183;-59
2023/06/14 02:45:10;;;;;;;2.60;2.30;;;25.50;47.80;;;;;;5054230;28;20221;-58
2023/06/14 02:47:36;;;;;;;2.72;2.50;;;25.50;47.90;;;;;;5054986;28;20171;-59
2023/06/14 02:50:02;;;;;;;2.70;2.50;;;25.50;47.90;;;;;;5054874;28;20549;-58
2023/06/14 02:52:28;;;;;;;2.63;2.42;;;25.50;47.80;;;;;;5053882;28;20657;-58
2023/06/14 02:54:54;;;;;;;2.30;2.10;;;25.40;47.70;;;;;;5055102;28;20182;-58
2023/06/14 02:57:20;;;;;;;2.53;2.25;;;25.50;47.80;;;;;;5054716;28;20545;-59
2023/06/14 02:59:45;;;;;;;3.05;2.05;;;25.40;47.70;;;;;;5054138;28;20219;-59
2023/06/14 03:02:11;;;;;;;2.40;2.20;;;25.40;47.70;;;;;;5054637;28;20262;-59
2023/06/14 03:04:40;;;;;;;2.35;2.15;;;25.40;47.70;;;;;;5054676;28;20203;-59
2023/06/14 03:07:08;;;;;;;2.08;1.88;;;25.40;47.70;;;;;;5053791;28;20651;-59
2023/06/14 03:09:36;;;;;;;2.83;2.30;;;25.40;47.80;;;;;;5054673;28;20194;-59
2023/06/14 03:12:02;;;;;;;2.88;2.13;;;25.40;47.90;;;;;;5054086;28;20547;-59
2023/06/14 03:14:29;;;;;;;2.53;2.33;;;25.40;47.80;;;;;;5054407;28;20187;-58
2023/06/14 03:16:56;;;;;;;2.50;2.15;;;25.40;47.80;;;;;;5054643;28;20258;-59
2023/06/14 03:19:22;;;;;;;2.95;1.95;;;25.40;47.80;;;;;;5053440;28;20199;-59
2023/06/14 03:21:48;;;;;;;2.50;2.30;;;25.40;47.80;;;;;;5054404;28;20213;-59
2023/06/14 03:24:16;;;;;;;2.10;1.90;;;25.40;47.80;;;;;;5054261;28;20187;-58
2023/06/14 03:26:41;;;;;;;2.40;2.20;;;25.40;47.70;;;;;;5053768;28;20171;-58
2023/06/14 03:29:07;;;;;;;2.22;2.03;;;25.40;47.80;;;;;;5054078;28;20186;-58
2023/06/14 03:31:34;;;;;;;2.30;2.20;;;25.40;47.80;;;;;;5054141;28;20940;-58
2023/06/14 03:34:00;;;;;;;3.47;2.38;;;25.40;47.90;;;;;;5053473;28;20194;-58
2023/06/14 03:36:26;;;;;;;2.22;2.00;;;25.40;47.80;;;;;;5053514;28;20227;-59
2023/06/14 03:38:51;;;;;;;2.47;2.13;;;25.40;47.80;;;;;;5053834;28;20242;-58
2023/06/14 03:41:17;;;;;;;2.58;2.10;;;25.40;47.80;;;;;;5053138;28;20277;-58
2023/06/14 03:43:42;;;;;;;2.60;2.40;;;25.30;47.70;;;;;;5053947;28;20262;-59
2023/06/14 03:46:08;;;;;;;2.65;2.40;;;25.40;47.80;;;;;;5053705;28;20217;-59
2023/06/14 03:48:33;;;;;;;3.38;2.25;;;25.40;47.90;;;;;;5053050;28;20550;-59
2023/06/14 03:50:59;;;;;;;2.50;2.08;;;25.30;47.80;;;;;;5053628;28;20182;-58
2023/06/14 03:53:25;;;;;;;2.15;2.00;;;25.40;47.80;;;;;;5053603;28;20680;-59
2023/06/14 03:55:52;;;;;;;2.40;1.98;;;25.40;47.80;;;;;;5053129;28;20257;-58
2023/06/14 03:58:18;;;;;;;2.10;2.00;;;25.30;47.80;;;;;;5053292;28;20203;-58
2023/06/14 04:00:43;;;;;;;2.17;1.98;;;25.30;47.70;;;;;;5053713;28;20262;-59
2023/06/14 04:03:09;;;;;;;2.95;2.30;;;25.40;47.80;;;;;;5052592;28;20717;-58
2023/06/14 04:05:35;;;;;;;3.25;2.10;;;25.30;47.70;;;;;;5053338;28;20273;-58
2023/06/14 04:08:01;;;;;;;2.20;2.00;;;25.30;47.70;;;;;;5053448;28;20626;-58
2023/06/14 04:10:27;;;;;;;1.98;1.77;;;25.30;47.70;;;;;;5052536;28;20179;-58
2023/06/14 04:12:53;;;;;;;3.75;2.40;;;25.40;47.70;;;;;;5053641;28;20255;-58
2023/06/14 04:15:18;;;;;;;2.25;2.05;;;25.30;47.60;;;;;;5052709;28;20262;-58
2023/06/14 04:17:44;;;;;;;1.98;1.80;;;25.30;47.60;;;;;;5053180;28;20168;-58
2023/06/14 04:20:10;;;;;;;2.50;2.30;;;25.40;47.60;;;;;;5053224;28;20211;-58
2023/06/14 04:22:36;;;;;;;2.35;2.15;;;25.30;47.60;;;;;;5053006;28;20544;-58
2023/06/14 04:25:01;;;;;;;2.30;2.10;;;25.40;47.60;;;;;;5053178;28;20184;-59
2023/06/14 04:27:28;;;;;;;2.13;1.98;;;25.40;47.60;;;;;;5052903;28;20250;-58
2023/06/14 04:29:56;;;;;;;2.20;2.00;;;25.30;47.60;;;;;;5052451;28;20282;-58
2023/06/14 04:32:25;;;;;;;2.58;2.38;;;25.30;47.50;;;;;;5052812;28;20171;-57
2023/06/14 04:34:53;;;;;;;2.90;2.15;;;25.30;47.50;;;;;;5053293;28;20182;-59
2023/06/14 04:37:20;;;;;;;3.13;1.98;;;25.30;47.50;;;;;;5051976;28;20283;-59
2023/06/14 04:39:46;;;;;;;2.85;2.47;;;25.30;47.50;;;;;;5053083;28;20218;-59
2023/06/14 04:42:13;;;;;;;2.58;2.22;;;25.40;47.60;;;;;;5052857;28;20179;-60
2023/06/14 04:44:39;;;;;;;2.95;2.03;;;25.30;47.50;;;;;;5052075;28;20285;-60
2023/06/14 04:47:06;;;;;;;3.67;2.30;;;25.30;47.50;;;;;;5052750;28;20175;-59
2023/06/14 04:49:33;;;;;;;2.10;1.80;;;25.30;47.50;;;;;;5052887;28;20220;-59
2023/06/14 04:52:01;;;;;;;1.98;1.88;;;25.30;47.40;;;;;;5052201;28;20603;-58
2023/06/14 04:54:26;;;;;;;3.17;2.15;;;25.30;47.40;;;;;;5052638;28;20678;-59
2023/06/14 04:56:53;;;;;;;2.00;1.90;;;25.30;47.40;;;;;;5052839;28;20648;-59
2023/06/14 04:59:18;;;;;;;2.78;2.28;;;25.30;47.40;;;;;;5051573;28;20677;-59
2023/06/14 05:01:48;;;;;;;2.20;2.00;;;25.30;47.40;;;;;;5052011;28;20269;-59
2023/06/14 05:04:15;;;;;;;2.42;2.20;;;25.40;47.50;;;;;;5052607;28;20178;-60
2023/06/14 05:06:41;;;;;;;2.35;2.15;;;25.30;47.40;;;;;;5051896;28;20554;-60
2023/06/14 05:09:07;;;;;;;3.22;2.45;;;25.30;47.50;;;;;;5052494;28;20183;-60
2023/06/14 05:11:32;;;;;;;2.00;1.90;;;25.30;47.50;;;;;;5052387;28;20168;-59
2023/06/14 05:13:58;;;;;;;2.20;2.00;;;25.30;47.40;;;;;;5052040;28;20175;-59
2023/06/14 05:16:25;;;;;;;2.30;2.10;;;25.30;47.40;;;;;;5052102;28;20532;-60
2023/06/14 05:18:51;;;;;;;2.83;1.90;;;25.30;47.40;;;;;;5051936;28;20572;-59
2023/06/14 05:21:18;;;;;;;2.70;2.47;;;25.30;47.30;;;;;;5052132;28;20182;-60
2023/06/14 05:23:44;;;;;;;2.60;2.08;;;25.40;47.40;;;;;;5052627;28;20178;-59
2023/06/14 05:26:10;;;;;;;2.42;2.22;;;25.30;47.30;;;;;;5051607;28;20180;-59
2023/06/14 05:28:36;;;;;;;1.98;1.88;;;25.30;47.40;;;;;;5052384;28;20182;-59
2023/06/14 05:31:01;;;;;;;2.22;1.77;;;25.30;47.40;;;;;;5052414;28;20525;-60
2023/06/14 05:33:27;;;;;;;2.50;2.30;;;25.30;47.40;;;;;;5051568;28;20190;-59
2023/06/14 05:35:52;;;;;;;3.13;2.00;;;25.30;47.60;;;;;;5052208;28;20209;-58
2023/06/14 05:38:18;;;;;;;2.33;2.10;;;25.30;47.40;;;;;;5052001;28;20248;-59
2023/06/14 05:40:43;;;;;;;2.67;2.35;;;25.30;47.50;;;;;;5051662;28;20643;-59
2023/06/14 05:43:10;;;;;;;2.00;1.80;;;25.30;47.40;;;;;;5051926;28;20705;-60
2023/06/14 05:45:35;;;;;;;1.77;1.67;;;25.30;47.50;;;;;;5052260;28;20179;-59
2023/06/14 05:48:01;;;;;;;1.98;1.85;;;25.30;47.60;;;;;;5051732;28;20258;-60
2023/06/14 05:50:26;;;;;;;2.25;2.05;;;25.30;47.60;;;;;;5051859;28;20274;-59
2023/06/14 05:52:53;;;;;;;2.70;2.00;;;25.30;47.70;;;;;;5052205;28;20217;-58
2023/06/14 05:55:18;;;;;;;2.45;2.25;;;25.30;47.60;;;;;;5051235;28;20187;-60
2023/06/14 05:57:44;;;;;;;1.92;1.83;;;25.30;47.70;;;;;;5052200;28;20170;-59
2023/06/14 06:00:14;;;;;;;2.55;2.35;;;25.30;47.70;;;;;;5051843;28;20280;-59
2023/06/14 06:02:43;;;;;;;1.90;1.80;;;25.30;47.80;;;;;;5051613;28;20186;-59
2023/06/14 06:05:12;;;;;;;2.28;2.08;;;25.30;47.80;;;;;;5052031;28;20183;-59
2023/06/14 06:07:37;;;;;;;2.25;2.13;;;25.30;47.70;;;;;;5052099;28;20171;-59
2023/06/14 06:10:03;;;;;;;2.10;1.90;;;25.30;47.80;;;;;;5051370;28;20182;-59
2023/06/14 06:12:29;;;;;;;1.67;1.58;;;25.30;47.80;;;;;;5051807;28;20214;-59
2023/06/14 06:14:55;;;;;;;2.25;2.08;;;25.30;47.80;;;;;;5054046;28;20195;-59
2023/06/14 06:17:20;;;;;;;2.30;2.03;;;25.20;47.80;;;;;;5055488;28;20167;-59
2023/06/14 06:19:46;;;;;;;1.85;1.75;;;25.30;47.90;;;;;;5055684;28;20685;-59
2023/06/14 06:22:11;;;;;;;2.20;2.00;;;25.20;47.90;;;;;;5054449;28;20963;-59
2023/06/14 06:24:37;;;;;;;2.20;2.00;;;25.30;47.90;;;;;;5055380;28;20175;-59
2023/06/14 06:27:03;;;;;;;2.28;2.05;;;25.30;47.90;;;;;;5055318;28;20670;-58
2023/06/14 06:29:29;;;;;;;2.20;1.80;;;25.30;47.80;;;;;;5054527;28;20171;-59
2023/06/14 06:31:56;;;;;;;2.25;2.05;;;25.30;47.90;;;;;;5055402;28;20618;-58
2023/06/14 06:34:21;;;;;;;2.70;2.10;;;25.30;48.00;;;;;;5054791;28;20638;-59
2023/06/14 06:36:47;;;;;;;3.47;2.13;;;25.30;47.90;;;;;;5054268;28;20234;-59
2023/06/14 06:39:14;;;;;;;2.30;2.10;;;25.30;47.80;;;;;;5055022;28;20658;-59
2023/06/14 06:41:40;;;;;;;3.25;2.22;;;25.20;47.60;;;;;;5055153;28;20171;-59
2023/06/14 06:44:06;;;;;;;2.17;1.98;;;25.30;47.70;;;;;;5054497;28;20183;-58
2023/06/14 06:46:32;;;;;;;2.95;2.22;;;25.30;47.70;;;;;;5054860;28;20653;-59
2023/06/14 06:48:58;;;;;;;2.33;2.13;;;25.20;47.60;;;;;;5054825;28;20179;-59
2023/06/14 06:51:23;;;;;;;3.08;2.20;;;25.20;47.70;;;;;;5053903;28;20178;-59
2023/06/14 06:53:53;;;;;;;3.15;2.33;;;25.30;47.60;;;;;;5054802;28;20217;-59
2023/06/14 06:56:19;;;;;;;2.67;2.20;;;25.20;47.60;;;;;;5054454;28;20182;-59
2023/06/14 06:58:45;;;;;;;2.30;2.10;;;25.30;47.50;;;;;;5054139;28;20670;-59
2023/06/14 07:01:11;;;;;;;3.38;2.20;;;25.30;47.60;;;;;;5054666;28;20175;-59
2023/06/14 07:03:37;;;;;;;3.80;2.00;;;25.30;47.50;;;;;;5054630;28;20548;-60
2023/06/14 07:06:02;;;;;;;2.88;1.95;;;25.30;47.60;;;;;;5053970;28;20175;-59
2023/06/14 07:08:28;;;;;;;5.88;2.20;;;25.30;47.50;;;;;;5054460;28;20184;-59
2023/06/14 07:10:53;;;;;;;2.00;1.90;;;25.30;47.70;;;;;;5054606;28;20179;-60
2023/06/14 07:13:19;;;;;;;2.17;1.83;;;25.30;47.70;;;;;;5053523;28;20167;-60
2023/06/14 07:15:44;;;;;;;2.15;1.95;;;25.30;47.60;;;;;;5054651;28;20175;-59
2023/06/14 07:18:10;;;;;;;2.63;2.15;;;25.30;47.70;;;;;;5053846;28;20267;-60
2023/06/14 07:20:38;;;;;;;6.82;1.90;;;25.30;47.80;;;;;;5054307;28;20194;-59
2023/06/14 07:23:03;;;;;;;3.78;1.98;;;25.30;47.80;;;;;;5054283;28;20183;-58
2023/06/14 07:25:29;;;;;;;2.67;2.28;;;25.40;47.90;;;;;;5052875;28;20179;-58
2023/06/14 07:27:54;;;;;;;4.55;2.10;;;25.40;47.80;;;;;;5054314;28;20171;-58
2023/06/14 07:30:20;;;;;;;3.90;2.10;;;25.40;48.60;;;;;;5053810;28;20175;-59
2023/06/14 07:32:46;;;;;;;3.35;2.10;;;25.30;47.90;;;;;;5053640;28;20175;-59
2023/06/14 07:35:12;;;;;;;2.75;2.35;;;25.30;48.20;;;;;;5054085;28;20175;-60
2023/06/14 07:37:37;;;;;;;2.65;2.13;;;25.30;48.10;;;;;;5053766;28;20222;-61
2023/06/14 07:40:06;;;;;;;3.65;2.10;;;25.30;48.10;;;;;;5053129;28;20211;-59
2023/06/14 07:42:33;;;;;;;2.47;1.92;;;25.30;48.20;;;;;;5053928;28;20186;-59
2023/06/14 07:44:59;;;;;;;2.90;2.17;;;25.30;48.10;;;;;;5054053;28;20187;-59
2023/06/14 07:47:25;;;;;;;5.82;2.28;;;25.30;48.00;;;;;;5052989;28;20205;-59
2023/06/14 07:49:50;;;;;;;5.05;2.00;;;25.30;48.00;;;;;;5054006;28;20175;-59
2023/06/14 07:52:16;;;;;;;2.33;1.98;;;25.30;48.00;;;;;;5053538;28;20168;-58
2023/06/14 07:54:41;;;;;;;3.00;2.25;;;25.30;48.00;;;;;;5052957;28;20187;-58
2023/06/14 07:57:07;;;;;;;2.78;2.13;;;25.30;48.00;;;;;;5053488;28;20634;-58
2023/06/14 07:59:33;;;;;;;4.82;2.33;;;25.30;48.00;;;;;;5053300;28;20230;-59
2023/06/14 08:01:58;;;;;;;3.28;1.83;;;25.30;48.00;;;;;;5052951;28;20183;-60
2023/06/14 08:04:25;;;;;;;2.15;1.75;;;25.30;48.00;;;;;;5053264;28;20175;-59
2023/06/14 08:06:50;;;;;;;2.20;2.00;;;25.30;48.00;;;;;;5053546;28;20259;-59
2023/06/14 08:09:16;;;;;;;2.05;1.95;;;25.30;48.00;;;;;;5052476;28;20713;-59
2023/06/14 08:11:42;;;;;;;2.60;2.40;;;25.30;48.00;;;;;;5053595;28;20175;-59
2023/06/14 08:14:07;;;;;;;4.72;1.90;;;25.30;48.00;;;;;;5053291;28;20214;-59
2023/06/14 08:16:33;;;;;;;2.75;1.92;;;25.30;48.00;;;;;;5052703;28;20248;-59
2023/06/14 08:18:58;;;;;;;2.83;1.95;;;25.30;47.90;;;;;;5053366;28;20242;-59
2023/06/14 08:21:28;;;;;;;2.97;1.98;;;25.30;47.90;;;;;;5053015;28;20257;-59
2023/06/14 08:23:57;;;;;;;3.55;2.22;;;25.30;47.80;;;;;;5053295;28;20178;-59
2023/06/14 08:26:22;;;;;;;3.97;2.05;;;25.30;47.80;;;;;;5052889;28;20258;-59
2023/06/14 08:28:48;;;;;;;1.88;1.77;;;25.30;47.80;;;;;;5052438;28;20310;-59
2023/06/14 08:31:14;;;;;;;2.03;1.88;;;25.30;47.80;;;;;;5053088;28;20225;-58
2023/06/14 08:33:42;;;;;;;2.83;2.10;;;25.30;47.80;;;;;;5053106;28;20171;-59
2023/06/14 08:36:08;;;;;;;3.53;1.88;;;25.30;47.90;;;;;;5051291;28;20237;-59
2023/06/14 08:38:34;;;;;;;2.30;2.10;;;25.30;47.90;;;;;;5052967;28;20655;-59
2023/06/14 08:40:59;;;;;;;2.53;1.42;;;25.30;47.80;;;;;;5053028;28;20183;-59
2023/06/14 08:43:25;;;;;;;2.03;1.92;;;25.30;47.80;;;;;;5050781;28;20229;-59
2023/06/14 08:45:57;;;;;;;2.65;1.70;;;25.30;47.80;;;;;;5053148;28;20171;-59
2023/06/14 08:48:23;;;;;;;1.85;1.75;;;25.30;47.70;;;;;;5051487;28;20186;-59
2023/06/14 08:50:49;;;;;;;2.22;1.90;;;25.30;47.60;;;;;;5052075;28;20261;-60
2023/06/14 08:53:19;;;;;;;4.28;1.80;;;25.30;47.60;;;;;;5052698;28;20199;-59
2023/06/14 08:55:45;;;;;;;2.83;2.22;;;25.30;47.50;;;;;;5051669;28;20255;-59
2023/06/14 08:58:14;;;;;;;3.78;2.03;;;25.40;47.50;;;;;;5051575;28;20258;-59
2023/06/14 09:00:41;;;;;;;2.00;1.80;;;25.40;47.50;;;;;;5052630;28;20190;-59
2023/06/14 09:03:12;;;;;;;1.90;1.80;;;25.30;47.30;;;;;;5051454;28;20213;-59
2023/06/14 09:05:38;;;;;;;2.78;2.00;;;25.30;47.30;;;;;;5052033;28;20232;-59
2023/06/14 09:08:05;;;;;;;2.78;1.80;;;25.40;47.20;;;;;;5052585;28;20258;-59
2023/06/14 09:10:33;;;;;;;1.90;1.70;;;25.40;47.20;;;;;;5052278;28;20257;-59
2023/06/14 09:13:00;;;;;;;2.15;1.70;;;25.40;47.00;;;;;;5050777;28;20360;-59
2023/06/14 09:15:26;;;;;;;1.75;1.65;;;25.40;47.00;;;;;;5052245;28;20266;-59
2023/06/14 09:17:51;;;;;;;2.33;1.88;;;25.40;46.80;;;;;;5051809;28;20258;-59
2023/06/14 09:20:18;;;;;;;1.73;1.63;;;25.40;46.90;;;;;;5052295;28;20215;-59
2023/06/14 09:22:44;;;;;;;3.00;1.50;;;25.40;46.80;;;;;;5052573;28;20167;-59
2023/06/14 09:25:10;;;;;;;2.22;1.75;;;25.40;46.60;;;;;;5051611;28;20183;-58
2023/06/14 09:27:35;;;;;;;1.70;1.60;;;25.40;46.50;;;;;;5052407;28;20205;-58
2023/06/14 09:30:03;;;;;;;1.88;1.77;;;25.40;46.50;;;;;;5052355;28;20179;-59
2023/06/14 09:32:28;;;;;;;2.22;1.73;;;25.40;46.30;;;;;;5051496;28;20178;-59
2023/06/14 09:34:54;;;;;;;2.10;1.63;;;25.40;46.10;;;;;;5052573;28;20172;-59
2023/06/14 09:37:28;;;;;;;2.30;1.70;;;25.40;46.00;;;;;;5051973;28;20257;-59
2023/06/14 09:39:53;;;;;;;1.83;1.63;;;25.40;46.00;;;;;;5051702;28;20223;-59
2023/06/14 09:42:19;;;;;;;1.88;1.40;;;25.40;45.80;;;;;;5051982;28;20669;-59
2023/06/14 09:44:48;;;;;;;2.28;1.60;;;25.40;45.90;;;;;;5052405;28;20167;-59
2023/06/14 09:47:13;;;;;;;2.25;2.08;;;25.40;45.80;;;;;;5051363;28;20180;-59
2023/06/14 09:49:39;;;;;;;1.70;1.60;;;25.40;45.50;;;;;;5038536;28;20179;-59
2023/06/14 09:52:05;;;;;;;2.25;2.00;;;25.50;45.50;;;;;;5056183;28;20221;-58
2023/06/14 09:54:31;;;;;;;2.70;1.52;;;25.40;45.70;;;;;;5053965;28;20180;-59
2023/06/14 09:56:56;;;;;;;3.17;1.70;;;25.40;45.30;;;;;;5054939;28;20163;-59
2023/06/14 09:59:29;;;;;;;3.20;1.75;;;25.50;45.40;;;;;;5054288;28;20607;-59
2023/06/14 10:01:54;;;;;;;2.03;1.50;;;25.50;46.00;;;;;;5038517;28;20171;-59
2023/06/14 10:04:20;;;;;;;2.45;1.40;;;25.40;45.30;;;;;;5037976;28;20274;-60
2023/06/14 10:06:45;;;;;;;2.72;1.58;;;25.40;45.30;;;;;;5054841;28;20262;-59
2023/06/14 10:09:11;;;;;;;3.08;1.75;;;25.40;45.30;;;;;;5054947;28;20668;-59
2023/06/14 10:11:38;;;;;;;1.77;1.67;;;25.50;45.30;;;;;;5055658;28;20167;-59
2023/06/14 10:14:05;;;;;;;1.73;1.60;;;25.50;45.40;;;;;;5054790;28;20541;-59
2023/06/14 10:16:52;;;;;;;1.63;1.52;;;25.50;45.20;;;;;;5054391;28;20168;-59
2023/06/14 10:19:25;;;;;;;3.30;1.55;;;25.50;45.40;;;;;;5054125;28;20214;-59
2023/06/14 10:22:16;;;;;;;2.53;1.48;;;25.50;45.50;;;;;;5054812;28;20175;-59
2023/06/14 10:24:42;;;;;;;2.08;1.60;;;25.50;45.30;;;;;;5055549;28;20183;-58
2023/06/14 10:27:11;;;;;;;2.00;1.60;;;25.50;45.10;;;;;;5055420;28;20198;-59
2023/06/14 10:29:55;;;;;;;1.60;1.48;;;25.50;45.00;;;;;;5054784;28;20182;-58
2023/06/14 10:32:21;;;;;;;1.67;1.58;;;25.50;45.20;;;;;;5055088;28;20191;-59
2023/06/14 10:35:06;;;;;;;2.17;1.67;;;25.60;45.20;;;;;;5055187;28;20171;-59
2023/06/14 10:37:32;;;;;;;1.60;1.50;;;25.50;45.00;;;;;;5054929;28;20249;-59
2023/06/14 10:39:58;;;;;;;2.40;2.10;;;25.50;45.10;;;;;;5054065;28;20211;-59
2023/06/14 10:42:35;;;;;;;2.65;1.60;;;25.50;45.20;;;;;;5054296;28;20190;-59
2023/06/14 10:45:01;;;;;;;1.67;1.50;;;25.50;45.30;;;;;;5053971;28;20171;-59
2023/06/14 10:47:30;;;;;;;1.73;1.55;;;25.50;45.20;;;;;;5054625;28;20253;-59
2023/06/14 10:50:02;;;;;;;2.05;1.60;;;25.50;45.10;;;;;;5054494;28;20175;-59
2023/06/14 10:52:28;;;;;;;1.67;1.58;;;25.50;45.20;;;;;;5054815;28;20174;-59
2023/06/14 10:55:21;;;;;;;1.50;1.40;;;25.60;45.20;;;;;;5055157;28;20544;-58
2023/06/14 10:57:51;;;;;;;2.08;1.30;;;25.50;45.10;;;;;;5053197;28;20179;-61
2023/06/14 11:00:21;;;;;;;1.58;1.40;;;25.50;45.00;;;;;;5053953;28;20210;-59
2023/06/14 11:03:09;;;;;;;2.65;1.50;;;25.50;45.20;;;;;;5054996;28;20228;-59
2023/06/14 11:05:52;;;;;;;1.23;1.15;;;25.50;45.10;;;;;;5052997;28;20198;-59
2023/06/14 11:08:20;;;;;;;2.13;1.42;;;25.60;45.00;;;;;;5054316;28;20179;-59
2023/06/14 11:10:46;;;;;;;3.38;1.75;;;25.60;45.00;;;;;;5052826;28;20205;-59
2023/06/14 11:13:12;;;;;;;1.85;1.35;;;25.60;45.00;;;;;;5036817;28;20164;-59
2023/06/14 11:15:37;;;;;;;1.73;1.63;;;25.60;44.90;;;;;;5054759;28;20171;-59
2023/06/14 11:18:05;;;;;;;1.58;1.42;;;25.60;44.90;;;;;;5053769;28;20186;-59
2023/06/14 11:20:31;;;;;;;2.03;1.65;;;25.50;44.80;;;;;;5054198;28;20194;-59
2023/06/14 11:22:57;;;;;;;1.52;1.42;;;25.60;44.80;;;;;;5054435;28;20175;-58
2023/06/14 11:25:23;;;;;;;2.28;1.40;;;25.60;44.70;;;;;;5053415;28;20171;-58
2023/06/14 11:27:51;;;;;;;1.60;1.50;;;25.60;44.80;;;;;;5054487;28;20718;-58
2023/06/14 11:30:17;;;;;;;1.50;1.40;;;25.60;44.80;;;;;;5053940;28;20171;-59
2023/06/14 11:32:42;;;;;;;2.28;1.58;;;25.60;44.80;;;;;;5053570;28;20209;-59
2023/06/14 11:35:09;;;;;;;1.60;1.33;;;25.60;44.70;;;;;;5054039;28;20171;-59
2023/06/14 11:37:36;;;;;;;1.63;1.52;;;25.60;44.80;;;;;;5053774;28;20234;-59
2023/06/14 11:40:08;;;;;;;2.67;1.70;;;25.60;44.70;;;;;;5052075;28;20309;-59
2023/06/14 11:42:33;;;;;;;1.73;1.60;;;25.60;44.70;;;;;;5054065;28;20266;-59
2023/06/14 11:44:59;;;;;;;2.67;1.40;;;25.60;44.60;;;;;;5054158;28;20271;-59
2023/06/14 11:47:25;;;;;;;1.83;1.40;;;25.60;44.80;;;;;;5052938;28;20211;-60
2023/06/14 11:49:50;;;;;;;2.03;1.48;;;25.60;44.80;;;;;;5052677;28;20184;-58
2023/06/14 11:52:17;;;;;;;2.10;1.55;;;25.60;44.80;;;;;;5052578;28;20167;-58
2023/06/14 11:54:43;;;;;;;1.73;1.33;;;25.60;44.80;;;;;;5053219;28;20202;-58
2023/06/14 11:57:10;;;;;;;1.50;1.40;;;25.60;44.90;;;;;;5052470;28;20646;-58
2023/06/14 11:59:39;;;;;;;1.40;1.30;;;25.60;45.00;;;;;;5051719;28;20215;-58
2023/06/14 12:02:06;;;;;;;1.45;1.35;;;25.60;44.90;;;;;;5052557;28;20168;-59
2023/06/14 12:04:32;;;;;;;1.63;1.40;;;25.60;44.90;;;;;;5052274;28;20258;-59
2023/06/14 12:06:57;;;;;;;1.60;1.20;;;25.60;44.80;;;;;;5052785;28;20255;-59
2023/06/14 12:09:25;;;;;;;2.45;1.60;;;25.60;44.90;;;;;;5052253;28;20201;-59
2023/06/14 12:11:51;;;;;;;1.52;1.42;;;25.60;44.80;;;;;;5052338;28;20675;-59
2023/06/14 12:14:16;;;;;;;2.53;1.73;;;25.60;44.70;;;;;;5051159;28;20183;-59
2023/06/14 12:16:42;;;;;;;2.70;1.48;;;25.60;44.80;;;;;;5053457;28;20250;-59
2023/06/14 12:19:12;;;;;;;1.50;1.40;;;25.60;44.80;;;;;;5052959;28;20673;-60
2023/06/14 12:21:40;;;;;;;1.80;1.70;;;25.60;44.70;;;;;;5052404;28;20206;-60
2023/06/14 12:24:06;;;;;;;1.25;1.23;;;25.60;44.70;;;;;;5052826;28;20692;-59
2023/06/14 12:26:32;;;;;;;1.65;1.52;;;25.60;45.00;;;;;;5051787;28;20183;-59
2023/06/14 12:28:57;;;;;;;1.45;1.30;;;25.70;45.00;;;;;;5051068;28;20179;-59
2023/06/14 12:31:23;;;;;;;2.00;1.33;;;25.70;45.10;;;;;;5052183;28;20171;-60
2023/06/14 12:33:49;;;;;;;1.77;1.23;;;25.70;45.20;;;;;;5062364;28;20201;-59
2023/06/14 12:36:15;;;;;;;1.77;1.33;;;25.70;45.30;;;;;;5072138;28;20227;-59
2023/06/14 12:38:42;;;;;;;2.35;1.73;;;25.70;45.50;;;;;;5072835;28;20752;-59
2023/06/14 12:41:07;;;;;;;1.98;1.45;;;25.70;45.50;;;;;;5072898;28;20205;-59
2023/06/14 12:43:33;;;;;;;2.20;1.25;;;25.70;45.60;;;;;;5072166;28;20633;-59
2023/06/14 12:45:59;;;;;;;2.15;1.77;;;25.80;45.50;;;;;;5072870;28;20710;-59